Terminal Aerodrome Forecast
Issued by NWS

Home | Current Version | Previous Version | Text Only | Print | Product List | Glossary On
Versions: 1 2 3 4 5 6 7 8 9 10 11 12 13 14 15 16 17 18 19 20 21 22 23 24
000
FTUS45 KCYS 272332
TAFAIA
TAF
KAIA 272332Z 2800/2824 32021G32KT P6SM BKN200
     FM280100 33017G25KT P6SM SCT200
     FM280200 29006KT P6SM FEW250
     FM282000 26015G23KT P6SM SKC=

USA.gov is the U.S. government's official web portal to all federal, state and local government web resources and services.